sensor_id;sensor_type;location;lat;lon;timestamp;P1;durP1;ratioP1;P2;durP2;ratioP2
10293;SDS011;5192;50.328;7.610;2022-12-18T00:01:25;23.83;;;13.43;;
10293;SDS011;5192;50.328;7.610;2022-12-18T00:03:54;27.43;;;12.90;;
10293;SDS011;5192;50.328;7.610;2022-12-18T00:06:22;26.97;;;13.10;;
10293;SDS011;5192;50.328;7.610;2022-12-18T00:08:54;28.53;;;13.40;;
10293;SDS011;5192;50.328;7.610;2022-12-18T00:11:24;33.37;;;13.80;;
10293;SDS011;5192;50.328;7.610;2022-12-18T00:13:57;27.20;;;12.53;;
10293;SDS011;5192;50.328;7.610;2022-12-18T00:16:25;27.90;;;13.93;;
10293;SDS011;5192;50.328;7.610;2022-12-18T00:18:53;29.37;;;13.20;;
10293;SDS011;5192;50.328;7.610;2022-12-18T00:21:21;32.87;;;13.97;;
10293;SDS011;5192;50.328;7.610;2022-12-18T00:23:49;28.13;;;13.50;;
10293;SDS011;5192;50.328;7.610;2022-12-18T00:26:21;28.37;;;12.77;;
10293;SDS011;5192;50.328;7.610;2022-12-18T00:28:49;32.77;;;14.33;;
10293;SDS011;5192;50.328;7.610;2022-12-18T00:31:19;25.87;;;12.03;;
10293;SDS011;5192;50.328;7.610;2022-12-18T00:33:49;26.13;;;12.47;;
10293;SDS011;5192;50.328;7.610;2022-12-18T00:36:16;24.80;;;11.83;;
10293;SDS011;5192;50.328;7.610;2022-12-18T00:38:46;27.63;;;12.67;;
10293;SDS011;5192;50.328;7.610;2022-12-18T00:41:16;23.33;;;12.27;;
10293;SDS011;5192;50.328;7.610;2022-12-18T00:44:05;25.77;;;12.07;;
10293;SDS011;5192;50.328;7.610;2022-12-18T00:46:34;24.17;;;12.00;;
10293;SDS011;5192;50.328;7.610;2022-12-18T00:49:03;20.77;;;10.70;;
10293;SDS011;5192;50.328;7.610;2022-12-18T00:51:29;23.20;;;12.37;;
10293;SDS011;5192;50.328;7.610;2022-12-18T00:53:55;28.43;;;12.93;;
10293;SDS011;5192;50.328;7.610;2022-12-18T00:56:22;25.90;;;12.90;;
10293;SDS011;5192;50.328;7.610;2022-12-18T00:58:48;27.03;;;11.90;;
10293;SDS011;5192;50.328;7.610;2022-12-18T01:01:17;29.27;;;11.77;;
10293;SDS011;5192;50.328;7.610;2022-12-18T01:03:44;29.17;;;13.10;;
10293;SDS011;5192;50.328;7.610;2022-12-18T01:06:12;31.47;;;12.60;;
10293;SDS011;5192;50.328;7.610;2022-12-18T01:08:40;31.87;;;12.53;;
10293;SDS011;5192;50.328;7.610;2022-12-18T01:11:08;33.27;;;13.50;;
10293;SDS011;5192;50.328;7.610;2022-12-18T01:13:42;25.37;;;12.80;;
10293;SDS011;5192;50.328;7.610;2022-12-18T01:16:13;26.60;;;12.60;;
10293;SDS011;5192;50.328;7.610;2022-12-18T01:18:41;27.47;;;12.50;;
10293;SDS011;5192;50.328;7.610;2022-12-18T01:21:09;28.97;;;13.33;;
10293;SDS011;5192;50.328;7.610;2022-12-18T01:23:37;32.03;;;12.27;;
10293;SDS011;5192;50.328;7.610;2022-12-18T01:26:08;25.67;;;11.67;;
10293;SDS011;5192;50.328;7.610;2022-12-18T01:28:41;31.43;;;12.63;;
10293;SDS011;5192;50.328;7.610;2022-12-18T01:31:14;27.73;;;12.77;;
10293;SDS011;5192;50.328;7.610;2022-12-18T01:33:41;28.70;;;12.60;;
10293;SDS011;5192;50.328;7.610;2022-12-18T01:36:13;26.00;;;12.50;;
10293;SDS011;5192;50.328;7.610;2022-12-18T01:39:04;26.63;;;12.30;;
10293;SDS011;5192;50.328;7.610;2022-12-18T01:41:36;25.30;;;11.23;;
10293;SDS011;5192;50.328;7.610;2022-12-18T01:47:25;28.17;;;12.40;;
10293;SDS011;5192;50.328;7.610;2022-12-18T01:50:14;24.70;;;11.93;;
10293;SDS011;5192;50.328;7.610;2022-12-18T01:52:42;24.33;;;12.13;;
10293;SDS011;5192;50.328;7.610;2022-12-18T01:55:14;25.77;;;11.63;;
10293;SDS011;5192;50.328;7.610;2022-12-18T01:57:43;25.93;;;10.43;;
10293;SDS011;5192;50.328;7.610;2022-12-18T02:00:15;32.13;;;13.60;;
10293;SDS011;5192;50.328;7.610;2022-12-18T02:02:45;26.87;;;12.57;;
10293;SDS011;5192;50.328;7.610;2022-12-18T02:05:15;28.43;;;12.27;;
10293;SDS011;5192;50.328;7.610;2022-12-18T02:17:00;24.50;;;10.43;;
10293;SDS011;5192;50.328;7.610;2022-12-18T02:27:59;28.47;;;11.83;;
10293;SDS011;5192;50.328;7.610;2022-12-18T02:30:33;24.00;;;11.43;;
10293;SDS011;5192;50.328;7.610;2022-12-18T02:33:04;23.63;;;11.13;;
10293;SDS011;5192;50.328;7.610;2022-12-18T02:35:35;30.20;;;13.20;;
10293;SDS011;5192;50.328;7.610;2022-12-18T02:38:03;27.23;;;12.53;;
10293;SDS011;5192;50.328;7.610;2022-12-18T02:40:31;28.07;;;11.93;;
10293;SDS011;5192;50.328;7.610;2022-12-18T02:43:03;28.97;;;12.67;;
10293;SDS011;5192;50.328;7.610;2022-12-18T02:45:49;24.57;;;11.53;;
10293;SDS011;5192;50.328;7.610;2022-12-18T02:48:22;27.07;;;12.63;;
10293;SDS011;5192;50.328;7.610;2022-12-18T02:51:36;26.47;;;12.57;;
10293;SDS011;5192;50.328;7.610;2022-12-18T02:54:06;29.37;;;12.40;;
10293;SDS011;5192;50.328;7.610;2022-12-18T02:56:43;28.90;;;13.03;;
10293;SDS011;5192;50.328;7.610;2022-12-18T02:59:19;28.13;;;13.40;;
10293;SDS011;5192;50.328;7.610;2022-12-18T03:05:07;28.00;;;13.07;;
10293;SDS011;5192;50.328;7.610;2022-12-18T03:07:43;23.77;;;11.30;;
10293;SDS011;5192;50.328;7.610;2022-12-18T03:10:28;24.47;;;11.23;;
10293;SDS011;5192;50.328;7.610;2022-12-18T03:13:02;26.30;;;12.20;;
10293;SDS011;5192;50.328;7.610;2022-12-18T03:15:36;28.47;;;12.63;;
10293;SDS011;5192;50.328;7.610;2022-12-18T03:18:13;25.63;;;11.17;;
10293;SDS011;5192;50.328;7.610;2022-12-18T03:20:44;25.67;;;11.70;;
10293;SDS011;5192;50.328;7.610;2022-12-18T03:23:16;29.53;;;12.90;;
10293;SDS011;5192;50.328;7.610;2022-12-18T03:25:51;28.30;;;12.20;;
10293;SDS011;5192;50.328;7.610;2022-12-18T03:28:20;29.43;;;13.87;;
10293;SDS011;5192;50.328;7.610;2022-12-18T03:30:52;29.20;;;13.77;;
10293;SDS011;5192;50.328;7.610;2022-12-18T03:33:25;27.67;;;11.67;;
10293;SDS011;5192;50.328;7.610;2022-12-18T03:36:07;35.63;;;14.40;;
10293;SDS011;5192;50.328;7.610;2022-12-18T03:38:33;31.07;;;14.17;;
10293;SDS011;5192;50.328;7.610;2022-12-18T03:41:09;27.07;;;12.43;;
10293;SDS011;5192;50.328;7.610;2022-12-18T03:46:46;28.10;;;12.03;;
10293;SDS011;5192;50.328;7.610;2022-12-18T03:52:28;24.50;;;11.73;;
10293;SDS011;5192;50.328;7.610;2022-12-18T03:54:59;27.87;;;11.90;;
10293;SDS011;5192;50.328;7.610;2022-12-18T03:57:28;29.53;;;11.23;;
10293;SDS011;5192;50.328;7.610;2022-12-18T04:00:03;26.90;;;12.97;;
10293;SDS011;5192;50.328;7.610;2022-12-18T04:02:35;28.77;;;12.87;;
10293;SDS011;5192;50.328;7.610;2022-12-18T04:05:05;31.73;;;12.77;;
10293;SDS011;5192;50.328;7.610;2022-12-18T04:07:34;27.37;;;12.33;;
10293;SDS011;5192;50.328;7.610;2022-12-18T04:10:01;27.67;;;12.63;;
10293;SDS011;5192;50.328;7.610;2022-12-18T04:12:30;28.57;;;13.40;;
10293;SDS011;5192;50.328;7.610;2022-12-18T04:14:55;32.17;;;13.73;;
10293;SDS011;5192;50.328;7.610;2022-12-18T04:17:22;29.57;;;14.30;;
10293;SDS011;5192;50.328;7.610;2022-12-18T04:19:50;28.77;;;13.13;;
10293;SDS011;5192;50.328;7.610;2022-12-18T04:22:17;25.03;;;12.40;;
10293;SDS011;5192;50.328;7.610;2022-12-18T04:24:44;31.47;;;13.30;;
10293;SDS011;5192;50.328;7.610;2022-12-18T04:27:10;29.23;;;13.20;;
10293;SDS011;5192;50.328;7.610;2022-12-18T04:29:35;28.10;;;12.77;;
10293;SDS011;5192;50.328;7.610;2022-12-18T04:32:01;26.97;;;11.97;;
10293;SDS011;5192;50.328;7.610;2022-12-18T04:34:28;27.23;;;11.53;;
10293;SDS011;5192;50.328;7.610;2022-12-18T04:36:54;29.20;;;13.23;;
10293;SDS011;5192;50.328;7.610;2022-12-18T04:39:23;24.83;;;11.80;;
10293;SDS011;5192;50.328;7.610;2022-12-18T04:41:50;29.23;;;11.97;;
10293;SDS011;5192;50.328;7.610;2022-12-18T04:44:17;28.07;;;12.77;;
10293;SDS011;5192;50.328;7.610;2022-12-18T04:46:44;26.80;;;13.37;;
10293;SDS011;5192;50.328;7.610;2022-12-18T04:49:10;29.97;;;12.73;;
10293;SDS011;5192;50.328;7.610;2022-12-18T04:51:39;30.90;;;12.93;;
10293;SDS011;5192;50.328;7.610;2022-12-18T04:54:07;24.73;;;11.10;;
10293;SDS011;5192;50.328;7.610;2022-12-18T04:56:33;27.83;;;12.83;;
10293;SDS011;5192;50.328;7.610;2022-12-18T04:58:59;28.33;;;13.63;;
10293;SDS011;5192;50.328;7.610;2022-12-18T05:01:27;26.33;;;12.63;;
10293;SDS011;5192;50.328;7.610;2022-12-18T05:03:54;30.97;;;13.40;;
10293;SDS011;5192;50.328;7.610;2022-12-18T05:06:21;28.70;;;12.40;;
10293;SDS011;5192;50.328;7.610;2022-12-18T05:08:48;24.70;;;12.30;;
10293;SDS011;5192;50.328;7.610;2022-12-18T05:11:16;27.00;;;12.20;;
10293;SDS011;5192;50.328;7.610;2022-12-18T05:13:44;26.20;;;12.80;;
10293;SDS011;5192;50.328;7.610;2022-12-18T05:16:12;30.67;;;13.23;;
10293;SDS011;5192;50.328;7.610;2022-12-18T05:18:39;28.53;;;13.40;;
10293;SDS011;5192;50.328;7.610;2022-12-18T05:21:08;27.67;;;13.93;;
10293;SDS011;5192;50.328;7.610;2022-12-18T05:23:36;25.20;;;12.67;;
10293;SDS011;5192;50.328;7.610;2022-12-18T05:26:05;31.40;;;13.93;;
10293;SDS011;5192;50.328;7.610;2022-12-18T05:28:34;31.20;;;13.67;;
10293;SDS011;5192;50.328;7.610;2022-12-18T05:31:04;29.70;;;13.50;;
10293;SDS011;5192;50.328;7.610;2022-12-18T05:33:33;27.47;;;13.77;;
10293;SDS011;5192;50.328;7.610;2022-12-18T05:36:01;30.63;;;14.23;;
10293;SDS011;5192;50.328;7.610;2022-12-18T05:38:36;30.60;;;13.80;;
10293;SDS011;5192;50.328;7.610;2022-12-18T05:41:05;27.80;;;12.80;;
10293;SDS011;5192;50.328;7.610;2022-12-18T05:43:37;31.87;;;13.87;;
10293;SDS011;5192;50.328;7.610;2022-12-18T05:46:13;31.07;;;13.73;;
10293;SDS011;5192;50.328;7.610;2022-12-18T05:48:41;30.97;;;13.43;;
10293;SDS011;5192;50.328;7.610;2022-12-18T05:51:12;27.67;;;13.20;;
10293;SDS011;5192;50.328;7.610;2022-12-18T05:53:41;31.67;;;13.60;;
10293;SDS011;5192;50.328;7.610;2022-12-18T05:56:08;24.00;;;10.60;;
10293;SDS011;5192;50.328;7.610;2022-12-18T05:58:36;23.73;;;12.50;;
10293;SDS011;5192;50.328;7.610;2022-12-18T06:01:08;27.17;;;12.93;;
10293;SDS011;5192;50.328;7.610;2022-12-18T06:03:53;26.10;;;12.87;;
10293;SDS011;5192;50.328;7.610;2022-12-18T06:06:22;28.63;;;12.47;;
10293;SDS011;5192;50.328;7.610;2022-12-18T06:08:53;27.60;;;13.13;;
10293;SDS011;5192;50.328;7.610;2022-12-18T06:11:22;29.20;;;13.03;;
10293;SDS011;5192;50.328;7.610;2022-12-18T06:13:52;27.97;;;12.50;;
10293;SDS011;5192;50.328;7.610;2022-12-18T06:16:21;24.93;;;12.70;;
10293;SDS011;5192;50.328;7.610;2022-12-18T06:18:47;29.27;;;11.77;;
10293;SDS011;5192;50.328;7.610;2022-12-18T06:21:15;24.80;;;10.40;;
10293;SDS011;5192;50.328;7.610;2022-12-18T06:23:41;27.27;;;13.27;;
10293;SDS011;5192;50.328;7.610;2022-12-18T06:26:11;25.60;;;12.93;;
10293;SDS011;5192;50.328;7.610;2022-12-18T06:28:39;27.70;;;13.70;;
10293;SDS011;5192;50.328;7.610;2022-12-18T06:31:08;33.23;;;14.43;;
10293;SDS011;5192;50.328;7.610;2022-12-18T06:33:36;29.77;;;14.13;;
10293;SDS011;5192;50.328;7.610;2022-12-18T06:38:48;27.87;;;13.67;;
10293;SDS011;5192;50.328;7.610;2022-12-18T06:41:16;31.60;;;14.37;;
10293;SDS011;5192;50.328;7.610;2022-12-18T06:43:45;30.60;;;13.83;;
10293;SDS011;5192;50.328;7.610;2022-12-18T06:46:12;32.30;;;14.37;;
10293;SDS011;5192;50.328;7.610;2022-12-18T06:48:38;30.30;;;13.57;;
10293;SDS011;5192;50.328;7.610;2022-12-18T06:51:04;28.30;;;14.07;;
10293;SDS011;5192;50.328;7.610;2022-12-18T06:53:31;33.70;;;15.03;;
10293;SDS011;5192;50.328;7.610;2022-12-18T06:56:05;30.43;;;14.40;;
10293;SDS011;5192;50.328;7.610;2022-12-18T06:58:37;31.63;;;13.93;;
10293;SDS011;5192;50.328;7.610;2022-12-18T07:01:06;29.87;;;12.87;;
10293;SDS011;5192;50.328;7.610;2022-12-18T07:03:37;28.73;;;12.60;;
10293;SDS011;5192;50.328;7.610;2022-12-18T07:06:04;31.10;;;13.10;;
10293;SDS011;5192;50.328;7.610;2022-12-18T07:08:37;28.70;;;12.73;;
10293;SDS011;5192;50.328;7.610;2022-12-18T07:11:04;24.53;;;12.07;;
10293;SDS011;5192;50.328;7.610;2022-12-18T07:13:32;27.80;;;12.37;;
10293;SDS011;5192;50.328;7.610;2022-12-18T07:16:10;25.30;;;13.63;;
10293;SDS011;5192;50.328;7.610;2022-12-18T07:18:39;32.53;;;13.93;;
10293;SDS011;5192;50.328;7.610;2022-12-18T07:21:12;32.43;;;13.57;;
10293;SDS011;5192;50.328;7.610;2022-12-18T07:23:40;28.57;;;12.57;;
10293;SDS011;5192;50.328;7.610;2022-12-18T07:26:08;25.87;;;12.80;;
10293;SDS011;5192;50.328;7.610;2022-12-18T07:28:37;30.13;;;13.03;;
10293;SDS011;5192;50.328;7.610;2022-12-18T07:31:09;25.90;;;12.47;;
10293;SDS011;5192;50.328;7.610;2022-12-18T07:33:38;28.07;;;14.23;;
10293;SDS011;5192;50.328;7.610;2022-12-18T07:36:07;28.90;;;12.90;;
10293;SDS011;5192;50.328;7.610;2022-12-18T07:38:36;30.17;;;13.67;;
10293;SDS011;5192;50.328;7.610;2022-12-18T07:41:04;23.70;;;11.80;;
10293;SDS011;5192;50.328;7.610;2022-12-18T07:43:33;28.53;;;11.97;;
10293;SDS011;5192;50.328;7.610;2022-12-18T07:46:00;33.03;;;13.27;;
10293;SDS011;5192;50.328;7.610;2022-12-18T07:48:28;24.87;;;12.80;;
10293;SDS011;5192;50.328;7.610;2022-12-18T07:50:58;27.87;;;12.57;;
10293;SDS011;5192;50.328;7.610;2022-12-18T07:53:27;29.37;;;12.57;;
10293;SDS011;5192;50.328;7.610;2022-12-18T07:55:59;27.07;;;12.47;;
10293;SDS011;5192;50.328;7.610;2022-12-18T07:58:31;28.43;;;12.93;;
10293;SDS011;5192;50.328;7.610;2022-12-18T08:01:08;33.83;;;14.93;;
10293;SDS011;5192;50.328;7.610;2022-12-18T08:03:36;30.40;;;14.83;;
10293;SDS011;5192;50.328;7.610;2022-12-18T08:06:06;31.07;;;15.07;;
10293;SDS011;5192;50.328;7.610;2022-12-18T08:08:34;27.07;;;13.53;;
10293;SDS011;5192;50.328;7.610;2022-12-18T08:11:03;28.83;;;13.27;;
10293;SDS011;5192;50.328;7.610;2022-12-18T08:13:30;30.83;;;14.70;;
10293;SDS011;5192;50.328;7.610;2022-12-18T08:16:01;32.93;;;14.27;;
10293;SDS011;5192;50.328;7.610;2022-12-18T08:18:34;30.17;;;13.77;;
10293;SDS011;5192;50.328;7.610;2022-12-18T08:21:13;30.67;;;12.70;;
10293;SDS011;5192;50.328;7.610;2022-12-18T08:23:52;30.03;;;13.37;;
10293;SDS011;5192;50.328;7.610;2022-12-18T08:26:19;32.77;;;14.63;;
10293;SDS011;5192;50.328;7.610;2022-12-18T08:28:46;29.77;;;12.70;;
10293;SDS011;5192;50.328;7.610;2022-12-18T08:31:12;28.80;;;14.07;;
10293;SDS011;5192;50.328;7.610;2022-12-18T08:33:41;32.80;;;14.33;;
10293;SDS011;5192;50.328;7.610;2022-12-18T08:36:08;31.60;;;13.57;;
10293;SDS011;5192;50.328;7.610;2022-12-18T08:38:36;28.60;;;14.70;;
10293;SDS011;5192;50.328;7.610;2022-12-18T08:41:04;26.57;;;11.83;;
10293;SDS011;5192;50.328;7.610;2022-12-18T08:43:33;27.77;;;13.70;;
10293;SDS011;5192;50.328;7.610;2022-12-18T08:46:19;34.20;;;15.33;;
10293;SDS011;5192;50.328;7.610;2022-12-18T08:48:54;37.23;;;16.60;;
10293;SDS011;5192;50.328;7.610;2022-12-18T08:51:22;36.20;;;16.40;;
10293;SDS011;5192;50.328;7.610;2022-12-18T08:53:47;29.93;;;14.13;;
10293;SDS011;5192;50.328;7.610;2022-12-18T08:56:13;31.77;;;14.50;;
10293;SDS011;5192;50.328;7.610;2022-12-18T08:58:43;32.03;;;15.53;;
10293;SDS011;5192;50.328;7.610;2022-12-18T09:01:09;31.97;;;15.23;;
10293;SDS011;5192;50.328;7.610;2022-12-18T09:03:38;28.33;;;15.13;;
10293;SDS011;5192;50.328;7.610;2022-12-18T09:06:05;34.77;;;15.53;;
10293;SDS011;5192;50.328;7.610;2022-12-18T09:08:34;34.10;;;16.37;;
10293;SDS011;5192;50.328;7.610;2022-12-18T09:11:02;33.27;;;16.60;;
10293;SDS011;5192;50.328;7.610;2022-12-18T09:13:28;33.20;;;15.70;;
10293;SDS011;5192;50.328;7.610;2022-12-18T09:15:55;32.10;;;15.83;;
10293;SDS011;5192;50.328;7.610;2022-12-18T09:18:23;31.80;;;16.03;;
10293;SDS011;5192;50.328;7.610;2022-12-18T09:20:52;36.37;;;17.87;;
10293;SDS011;5192;50.328;7.610;2022-12-18T09:23:20;34.47;;;17.00;;
10293;SDS011;5192;50.328;7.610;2022-12-18T09:25:47;34.77;;;17.53;;
10293;SDS011;5192;50.328;7.610;2022-12-18T09:28:15;40.73;;;17.90;;
10293;SDS011;5192;50.328;7.610;2022-12-18T09:30:45;40.40;;;17.93;;
10293;SDS011;5192;50.328;7.610;2022-12-18T09:33:16;33.63;;;16.47;;
10293;SDS011;5192;50.328;7.610;2022-12-18T09:35:42;34.53;;;16.43;;
10293;SDS011;5192;50.328;7.610;2022-12-18T09:38:14;40.03;;;18.53;;
10293;SDS011;5192;50.328;7.610;2022-12-18T09:40:49;32.67;;;17.17;;
10293;SDS011;5192;50.328;7.610;2022-12-18T09:43:28;41.27;;;20.37;;
10293;SDS011;5192;50.328;7.610;2022-12-18T09:46:23;42.83;;;19.57;;
10293;SDS011;5192;50.328;7.610;2022-12-18T09:49:05;43.83;;;20.27;;
10293;SDS011;5192;50.328;7.610;2022-12-18T09:54:41;32.87;;;17.10;;
10293;SDS011;5192;50.328;7.610;2022-12-18T09:57:17;42.67;;;21.00;;
10293;SDS011;5192;50.328;7.610;2022-12-18T10:00:01;42.43;;;21.80;;
10293;SDS011;5192;50.328;7.610;2022-12-18T10:02:50;39.13;;;20.13;;
10293;SDS011;5192;50.328;7.610;2022-12-18T10:11:24;37.63;;;21.63;;
10293;SDS011;5192;50.328;7.610;2022-12-18T10:17:07;41.57;;;20.50;;
10293;SDS011;5192;50.328;7.610;2022-12-18T10:19:59;44.70;;;22.50;;
10293;SDS011;5192;50.328;7.610;2022-12-18T10:22:59;42.07;;;20.47;;
10293;SDS011;5192;50.328;7.610;2022-12-18T10:28:41;42.53;;;21.77;;
10293;SDS011;5192;50.328;7.610;2022-12-18T10:31:17;42.40;;;21.53;;
10293;SDS011;5192;50.328;7.610;2022-12-18T10:33:45;32.20;;;19.50;;
10293;SDS011;5192;50.328;7.610;2022-12-18T10:36:12;33.17;;;20.47;;
10293;SDS011;5192;50.328;7.610;2022-12-18T10:38:39;34.80;;;19.77;;
10293;SDS011;5192;50.328;7.610;2022-12-18T10:44:16;31.00;;;17.43;;
10293;SDS011;5192;50.328;7.610;2022-12-18T10:46:45;30.27;;;17.47;;
10293;SDS011;5192;50.328;7.610;2022-12-18T10:49:18;28.27;;;16.67;;
10293;SDS011;5192;50.328;7.610;2022-12-18T10:51:48;27.40;;;17.07;;
10293;SDS011;5192;50.328;7.610;2022-12-18T10:54:18;34.63;;;17.60;;
10293;SDS011;5192;50.328;7.610;2022-12-18T10:56:51;31.50;;;16.67;;
10293;SDS011;5192;50.328;7.610;2022-12-18T10:59:53;32.33;;;16.43;;
10293;SDS011;5192;50.328;7.610;2022-12-18T11:07:55;29.37;;;16.87;;
10293;SDS011;5192;50.328;7.610;2022-12-18T11:10:25;29.57;;;16.80;;
10293;SDS011;5192;50.328;7.610;2022-12-18T11:13:16;30.10;;;16.83;;
10293;SDS011;5192;50.328;7.610;2022-12-18T11:15:48;29.13;;;16.50;;
10293;SDS011;5192;50.328;7.610;2022-12-18T11:18:25;30.93;;;17.50;;
10293;SDS011;5192;50.328;7.610;2022-12-18T11:21:12;29.30;;;17.93;;
10293;SDS011;5192;50.328;7.610;2022-12-18T11:23:50;28.93;;;16.47;;
10293;SDS011;5192;50.328;7.610;2022-12-18T11:26:21;30.97;;;18.27;;
10293;SDS011;5192;50.328;7.610;2022-12-18T11:29:09;28.73;;;17.57;;
10293;SDS011;5192;50.328;7.610;2022-12-18T11:31:43;33.23;;;17.70;;
10293;SDS011;5192;50.328;7.610;2022-12-18T11:36:57;26.87;;;15.87;;
10293;SDS011;5192;50.328;7.610;2022-12-18T11:42:35;27.67;;;16.73;;
10293;SDS011;5192;50.328;7.610;2022-12-18T11:45:29;30.40;;;16.10;;
10293;SDS011;5192;50.328;7.610;2022-12-18T11:48:08;30.73;;;16.47;;
10293;SDS011;5192;50.328;7.610;2022-12-18T11:51:00;28.97;;;16.97;;
10293;SDS011;5192;50.328;7.610;2022-12-18T11:53:31;30.13;;;17.23;;
10293;SDS011;5192;50.328;7.610;2022-12-18T12:01:51;30.27;;;17.27;;
10293;SDS011;5192;50.328;7.610;2022-12-18T12:07:21;28.77;;;16.80;;
10293;SDS011;5192;50.328;7.610;2022-12-18T12:10:23;36.33;;;20.40;;
10293;SDS011;5192;50.328;7.610;2022-12-18T12:15:47;25.57;;;14.80;;
10293;SDS011;5192;50.328;7.610;2022-12-18T12:24:27;29.93;;;17.17;;
10293;SDS011;5192;50.328;7.610;2022-12-18T12:27:22;28.13;;;17.20;;
10293;SDS011;5192;50.328;7.610;2022-12-18T12:30:05;33.03;;;18.60;;
10293;SDS011;5192;50.328;7.610;2022-12-18T12:32:44;31.63;;;18.20;;
10293;SDS011;5192;50.328;7.610;2022-12-18T12:38:15;29.57;;;17.77;;
10293;SDS011;5192;50.328;7.610;2022-12-18T12:41:02;34.57;;;17.97;;
10293;SDS011;5192;50.328;7.610;2022-12-18T12:43:53;29.80;;;17.97;;
10293;SDS011;5192;50.328;7.610;2022-12-18T12:46:23;35.67;;;17.17;;
10293;SDS011;5192;50.328;7.610;2022-12-18T12:49:09;31.77;;;18.20;;
10293;SDS011;5192;50.328;7.610;2022-12-18T12:51:43;31.40;;;17.43;;
10293;SDS011;5192;50.328;7.610;2022-12-18T12:54:34;31.60;;;18.10;;
10293;SDS011;5192;50.328;7.610;2022-12-18T12:57:09;31.23;;;18.20;;
10293;SDS011;5192;50.328;7.610;2022-12-18T13:08:54;30.40;;;16.80;;
10293;SDS011;5192;50.328;7.610;2022-12-18T13:11:43;28.70;;;15.83;;
10293;SDS011;5192;50.328;7.610;2022-12-18T13:14:37;30.43;;;18.20;;
10293;SDS011;5192;50.328;7.610;2022-12-18T13:22:46;30.93;;;18.03;;
10293;SDS011;5192;50.328;7.610;2022-12-18T13:25:37;28.93;;;17.77;;
10293;SDS011;5192;50.328;7.610;2022-12-18T13:30:51;32.20;;;16.80;;
10293;SDS011;5192;50.328;7.610;2022-12-18T13:39:11;32.60;;;18.20;;
10293;SDS011;5192;50.328;7.610;2022-12-18T13:47:31;32.43;;;19.77;;
10293;SDS011;5192;50.328;7.610;2022-12-18T13:49:57;33.90;;;18.23;;
10293;SDS011;5192;50.328;7.610;2022-12-18T13:52:25;35.23;;;19.37;;
10293;SDS011;5192;50.328;7.610;2022-12-18T13:55:01;33.03;;;19.13;;
10293;SDS011;5192;50.328;7.610;2022-12-18T14:02:59;28.50;;;18.30;;
10293;SDS011;5192;50.328;7.610;2022-12-18T14:08:14;28.73;;;17.57;;
10293;SDS011;5192;50.328;7.610;2022-12-18T14:10:46;34.73;;;19.07;;
10293;SDS011;5192;50.328;7.610;2022-12-18T14:13:29;34.43;;;18.63;;
10293;SDS011;5192;50.328;7.610;2022-12-18T14:16:06;35.30;;;18.33;;
10293;SDS011;5192;50.328;7.610;2022-12-18T14:18:42;32.10;;;18.10;;
10293;SDS011;5192;50.328;7.610;2022-12-18T14:21:25;34.53;;;18.27;;
10293;SDS011;5192;50.328;7.610;2022-12-18T14:26:49;36.13;;;19.63;;
10293;SDS011;5192;50.328;7.610;2022-12-18T14:29:29;36.50;;;20.73;;
10293;SDS011;5192;50.328;7.610;2022-12-18T14:34:46;28.40;;;17.13;;
10293;SDS011;5192;50.328;7.610;2022-12-18T14:37:15;38.03;;;20.40;;
10293;SDS011;5192;50.328;7.610;2022-12-18T14:42:39;34.40;;;19.23;;
10293;SDS011;5192;50.328;7.610;2022-12-18T14:48:16;35.60;;;19.07;;
10293;SDS011;5192;50.328;7.610;2022-12-18T14:51:34;34.27;;;17.93;;
10293;SDS011;5192;50.328;7.610;2022-12-18T14:53:46;33.37;;;19.83;;
10293;SDS011;5192;50.328;7.610;2022-12-18T14:56:16;35.50;;;20.00;;
10293;SDS011;5192;50.328;7.610;2022-12-18T14:58:56;31.27;;;19.37;;
10293;SDS011;5192;50.328;7.610;2022-12-18T15:01:33;34.93;;;18.83;;
10293;SDS011;5192;50.328;7.610;2022-12-18T15:04:31;36.20;;;19.63;;
10293;SDS011;5192;50.328;7.610;2022-12-18T15:07:13;35.70;;;19.03;;
10293;SDS011;5192;50.328;7.610;2022-12-18T15:12:43;29.37;;;16.47;;
10293;SDS011;5192;50.328;7.610;2022-12-18T15:21:07;36.33;;;18.57;;
10293;SDS011;5192;50.328;7.610;2022-12-18T15:26:30;36.00;;;19.20;;
10293;SDS011;5192;50.328;7.610;2022-12-18T15:29:04;35.10;;;19.67;;
10293;SDS011;5192;50.328;7.610;2022-12-18T15:31:45;35.10;;;19.80;;
10293;SDS011;5192;50.328;7.610;2022-12-18T15:34:26;39.30;;;20.60;;
10293;SDS011;5192;50.328;7.610;2022-12-18T15:36:53;35.10;;;18.33;;
10293;SDS011;5192;50.328;7.610;2022-12-18T15:39:20;34.80;;;18.27;;
10293;SDS011;5192;50.328;7.610;2022-12-18T15:41:46;38.03;;;19.13;;
10293;SDS011;5192;50.328;7.610;2022-12-18T15:44:31;33.03;;;18.63;;
10293;SDS011;5192;50.328;7.610;2022-12-18T15:46:58;34.47;;;18.30;;
10293;SDS011;5192;50.328;7.610;2022-12-18T15:49:26;33.50;;;17.80;;
10293;SDS011;5192;50.328;7.610;2022-12-18T15:51:54;38.07;;;21.07;;
10293;SDS011;5192;50.328;7.610;2022-12-18T15:54:24;37.63;;;20.23;;
10293;SDS011;5192;50.328;7.610;2022-12-18T15:57:09;32.83;;;18.67;;
10293;SDS011;5192;50.328;7.610;2022-12-18T15:59:51;32.90;;;18.90;;
10293;SDS011;5192;50.328;7.610;2022-12-18T16:02:18;39.70;;;21.23;;
10293;SDS011;5192;50.328;7.610;2022-12-18T16:04:46;34.27;;;20.47;;
10293;SDS011;5192;50.328;7.610;2022-12-18T16:07:17;29.20;;;16.00;;
10293;SDS011;5192;50.328;7.610;2022-12-18T16:09:44;38.23;;;20.33;;
10293;SDS011;5192;50.328;7.610;2022-12-18T16:12:18;28.53;;;16.73;;
10293;SDS011;5192;50.328;7.610;2022-12-18T16:14:47;38.10;;;21.90;;
10293;SDS011;5192;50.328;7.610;2022-12-18T16:17:15;38.93;;;20.77;;
10293;SDS011;5192;50.328;7.610;2022-12-18T16:19:47;36.27;;;20.13;;
10293;SDS011;5192;50.328;7.610;2022-12-18T16:22:19;31.90;;;16.27;;
10293;SDS011;5192;50.328;7.610;2022-12-18T16:24:50;35.17;;;18.90;;
10293;SDS011;5192;50.328;7.610;2022-12-18T16:27:17;36.63;;;20.17;;
10293;SDS011;5192;50.328;7.610;2022-12-18T16:29:43;36.63;;;20.77;;
10293;SDS011;5192;50.328;7.610;2022-12-18T16:32:18;28.40;;;18.50;;
10293;SDS011;5192;50.328;7.610;2022-12-18T16:34:49;41.50;;;21.37;;
10293;SDS011;5192;50.328;7.610;2022-12-18T16:37:16;38.53;;;21.00;;
10293;SDS011;5192;50.328;7.610;2022-12-18T16:39:43;38.43;;;20.40;;
10293;SDS011;5192;50.328;7.610;2022-12-18T16:42:11;42.70;;;21.43;;
10293;SDS011;5192;50.328;7.610;2022-12-18T16:44:45;35.97;;;18.97;;
10293;SDS011;5192;50.328;7.610;2022-12-18T16:47:16;42.97;;;22.47;;
10293;SDS011;5192;50.328;7.610;2022-12-18T16:49:52;41.40;;;21.00;;
10293;SDS011;5192;50.328;7.610;2022-12-18T16:52:19;42.60;;;22.20;;
10293;SDS011;5192;50.328;7.610;2022-12-18T16:54:46;41.20;;;21.53;;
10293;SDS011;5192;50.328;7.610;2022-12-18T16:57:13;39.50;;;20.90;;
10293;SDS011;5192;50.328;7.610;2022-12-18T16:59:42;40.53;;;21.33;;
10293;SDS011;5192;50.328;7.610;2022-12-18T17:05:05;43.70;;;22.10;;
10293;SDS011;5192;50.328;7.610;2022-12-18T17:07:33;40.97;;;21.67;;
10293;SDS011;5192;50.328;7.610;2022-12-18T17:10:00;40.87;;;20.73;;
10293;SDS011;5192;50.328;7.610;2022-12-18T17:12:26;39.77;;;20.27;;
10293;SDS011;5192;50.328;7.610;2022-12-18T17:14:54;39.03;;;19.83;;
10293;SDS011;5192;50.328;7.610;2022-12-18T17:17:20;39.60;;;21.00;;
10293;SDS011;5192;50.328;7.610;2022-12-18T17:19:51;41.77;;;21.60;;
10293;SDS011;5192;50.328;7.610;2022-12-18T17:22:20;36.20;;;18.03;;
10293;SDS011;5192;50.328;7.610;2022-12-18T17:24:50;35.20;;;18.47;;
10293;SDS011;5192;50.328;7.610;2022-12-18T17:27:17;31.30;;;15.50;;
10293;SDS011;5192;50.328;7.610;2022-12-18T17:29:45;42.73;;;22.17;;